createdAt,value
2019-01-21T00:00:38.515Z,32.40
2019-01-21T00:03:14.292Z,31.20
2019-01-21T00:05:38.871Z,35.30
2019-01-21T00:08:08.063Z,27.17
2019-01-21T00:10:37.254Z,30.03
2019-01-21T00:13:06.521Z,33.63
2019-01-21T00:15:36.206Z,32.53
2019-01-21T00:18:11.175Z,34.70
2019-01-21T00:20:40.283Z,31.50
2019-01-21T00:23:09.440Z,34.03
2019-01-21T00:25:38.664Z,41.17
2019-01-21T00:28:26.950Z,33.23
2019-01-21T00:30:55.974Z,42.27
2019-01-21T00:33:24.981Z,41.10
2019-01-21T00:35:54.051Z,38.73
2019-01-21T00:38:23.030Z,42.70
2019-01-21T00:40:55.544Z,40.33
2019-01-21T00:43:24.746Z,39.70
2019-01-21T00:45:53.864Z,37.63
2019-01-21T00:48:22.917Z,39.60
2019-01-21T00:50:52.053Z,42.73
2019-01-21T00:53:21.076Z,38.47
2019-01-21T00:55:50.126Z,38.00
2019-01-21T00:58:19.185Z,37.70
2019-01-21T01:00:48.266Z,42.93
2019-01-21T01:03:17.357Z,39.47
2019-01-21T01:05:46.492Z,39.30
2019-01-21T01:08:15.508Z,38.20
2019-01-21T01:10:44.534Z,41.37
2019-01-21T01:13:13.564Z,40.50
2019-01-21T01:15:42.552Z,38.77
2019-01-21T01:18:11.620Z,39.50
2019-01-21T01:20:40.651Z,39.43
2019-01-21T01:23:10.160Z,44.83
2019-01-21T01:25:39.249Z,45.07
2019-01-21T01:28:08.241Z,38.47
2019-01-21T01:30:37.267Z,43.40
2019-01-21T01:33:06.355Z,44.27
2019-01-21T01:35:35.369Z,35.57
2019-01-21T01:38:04.450Z,35.63
2019-01-21T01:40:33.493Z,40.00
2019-01-21T01:43:02.501Z,37.27
2019-01-21T01:45:31.621Z,40.13
2019-01-21T01:48:04.287Z,42.60
2019-01-21T01:50:33.397Z,36.47
2019-01-21T01:53:02.577Z,35.50
2019-01-21T01:55:32.840Z,39.10
2019-01-21T01:58:03.793Z,41.57
2019-01-21T02:00:32.819Z,35.37
2019-01-21T02:03:01.965Z,42.47
2019-01-21T02:05:31.170Z,35.57
2019-01-21T02:08:00.823Z,38.57
2019-01-21T02:10:30.377Z,33.47
2019-01-21T02:12:59.562Z,36.57
2019-01-21T02:15:28.664Z,36.93
2019-01-21T02:17:57.757Z,36.67
2019-01-21T02:20:26.868Z,42.87
2019-01-21T02:22:59.177Z,36.70
2019-01-21T02:25:39.670Z,35.77
2019-01-21T02:28:27.642Z,44.40
2019-01-21T02:31:40.078Z,37.87
2019-01-21T02:34:29.573Z,36.53
2019-01-21T02:37:39.950Z,35.07
2019-01-21T02:41:02.060Z,39.27
2019-01-21T02:44:18.397Z,44.70
2019-01-21T02:47:26.199Z,36.83
2019-01-21T02:50:34.951Z,40.70
2019-01-21T02:53:38.171Z,44.60
2019-01-21T02:57:07.146Z,44.57
2019-01-21T03:00:02.907Z,47.23
2019-01-21T03:02:43.073Z,35.70
2019-01-21T03:05:53.085Z,37.20
2019-01-21T03:08:58.697Z,45.33
2019-01-21T03:11:48.552Z,38.30
2019-01-21T03:15:03.055Z,35.93
2019-01-21T03:18:08.553Z,35.00
2019-01-21T03:21:31.371Z,41.97
2019-01-21T03:24:43.392Z,40.93
2019-01-21T03:27:49.762Z,36.63
2019-01-21T03:30:37.410Z,43.37
2019-01-21T03:33:45.033Z,36.90
2019-01-21T03:36:47.380Z,40.27
2019-01-21T03:39:48.457Z,38.87
2019-01-21T03:42:23.448Z,33.17
2019-01-21T03:45:27.526Z,40.97
2019-01-21T03:48:39.749Z,39.20
2019-01-21T03:51:44.761Z,43.60
2019-01-21T03:54:20.804Z,39.73
2019-01-21T03:57:05.483Z,37.40
2019-01-21T04:00:06.692Z,39.97
2019-01-21T04:03:16.768Z,43.83
2019-01-21T04:06:25.058Z,38.93
2019-01-21T04:09:39.399Z,40.67
2019-01-21T04:12:37.162Z,45.47
2019-01-21T04:15:59.029Z,40.80
2019-01-21T04:19:09.665Z,40.80
2019-01-21T04:22:13.961Z,43.17
2019-01-21T04:25:10.042Z,38.63
2019-01-21T04:27:48.649Z,38.57
2019-01-21T04:30:46.041Z,47.20
2019-01-21T04:33:36.454Z,40.03
2019-01-21T04:36:36.844Z,40.67
2019-01-21T04:39:59.272Z,39.40
2019-01-21T04:43:27.604Z,39.63
2019-01-21T04:46:37.214Z,39.03
2019-01-21T04:49:52.023Z,39.73
2019-01-21T04:52:52.646Z,42.77
2019-01-21T04:56:01.750Z,40.10
2019-01-21T04:59:18.007Z,40.57
2019-01-21T05:02:23.150Z,34.97
2019-01-21T05:05:17.982Z,41.17
2019-01-21T05:08:26.932Z,40.40
2019-01-21T05:11:43.380Z,40.53
2019-01-21T05:15:03.670Z,39.57
2019-01-21T05:17:52.697Z,32.80
2019-01-21T05:21:08.310Z,39.57
2019-01-21T05:24:24.716Z,36.77
2019-01-21T05:27:54.649Z,34.07
2019-01-21T05:30:59.620Z,30.00
2019-01-21T05:33:52.304Z,40.40
2019-01-21T05:36:55.920Z,41.00
2019-01-21T05:42:47.346Z,42.87
2019-01-21T05:45:42.016Z,46.00
2019-01-21T05:48:49.056Z,46.43
2019-01-21T05:51:50.959Z,35.70
2019-01-21T05:55:15.169Z,43.60
2019-01-21T05:58:21.488Z,42.53
2019-01-21T06:01:15.897Z,42.33
2019-01-21T06:04:26.095Z,37.17
2019-01-21T06:07:26.295Z,44.97
2019-01-21T06:10:10.939Z,41.03
2019-01-21T06:13:11.640Z,38.70
2019-01-21T06:16:04.691Z,38.20
2019-01-21T06:18:57.093Z,42.43
2019-01-21T06:22:10.032Z,40.83
2019-01-21T06:25:22.672Z,39.40
2019-01-21T06:28:36.400Z,36.37
2019-01-21T06:31:59.017Z,36.63
2019-01-21T06:38:08.650Z,47.07
2019-01-21T06:41:32.827Z,62.90
2019-01-21T06:44:52.344Z,47.67
2019-01-21T06:47:46.094Z,55.50
2019-01-21T06:50:48.763Z,46.47
2019-01-21T06:53:51.000Z,49.30
2019-01-21T06:57:18.005Z,48.20
2019-01-21T07:00:27.018Z,50.57
2019-01-21T07:03:26.815Z,46.20
2019-01-21T07:06:45.960Z,52.27
2019-01-21T07:09:26.563Z,43.87
2019-01-21T07:12:36.600Z,43.70
2019-01-21T07:15:31.587Z,49.97
2019-01-21T07:18:33.477Z,52.77
2019-01-21T07:21:50.825Z,48.87
2019-01-21T07:24:53.330Z,41.13
2019-01-21T07:28:16.631Z,44.80
2019-01-21T07:31:14.609Z,51.33
2019-01-21T07:34:30.856Z,49.13
2019-01-21T07:37:37.119Z,62.43
2019-01-21T07:40:35.288Z,62.03
2019-01-21T07:43:42.655Z,58.47
2019-01-21T07:47:02.313Z,63.63
2019-01-21T07:50:09.007Z,53.20
2019-01-21T07:53:11.797Z,53.20
2019-01-21T07:56:17.977Z,46.77
2019-01-21T07:59:09.478Z,43.63
2019-01-21T08:02:01.264Z,36.67
2019-01-21T08:05:07.564Z,40.90
2019-01-21T08:08:20.574Z,45.23
2019-01-21T08:11:18.126Z,58.77
2019-01-21T08:14:08.116Z,60.20
2019-01-21T08:17:29.790Z,41.97
2019-01-21T08:20:19.966Z,48.83
2019-01-21T08:23:24.193Z,55.27
2019-01-21T08:26:31.680Z,45.87
2019-01-21T08:29:25.014Z,46.30
2019-01-21T08:32:21.532Z,51.77
2019-01-21T08:35:13.210Z,42.33
2019-01-21T08:38:18.396Z,38.77
2019-01-21T08:41:27.225Z,39.83
2019-01-21T08:44:23.956Z,38.77
2019-01-21T08:47:23.615Z,41.37
2019-01-21T08:50:13.759Z,38.93
2019-01-21T08:53:18.643Z,40.20
2019-01-21T08:56:29.208Z,33.13
2019-01-21T08:59:35.603Z,34.73
2019-01-21T09:02:45.820Z,33.50
2019-01-21T09:05:27.627Z,34.83
2019-01-21T09:08:38.031Z,38.20
2019-01-21T09:11:38.183Z,36.87
2019-01-21T09:14:51.461Z,36.43
2019-01-21T09:17:56.907Z,38.17
2019-01-21T09:21:17.171Z,38.90
2019-01-21T09:24:27.453Z,36.13
2019-01-21T09:27:27.047Z,38.37
2019-01-21T09:30:46.711Z,33.67
2019-01-21T09:33:49.257Z,37.07
2019-01-21T09:36:46.842Z,35.77
2019-01-21T09:39:50.050Z,41.47
2019-01-21T09:42:30.050Z,41.50
2019-01-21T09:47:46.298Z,40.57
2019-01-21T09:50:15.238Z,40.17
2019-01-21T09:52:44.286Z,47.33
2019-01-21T09:55:15.282Z,42.90
2019-01-21T09:57:44.440Z,46.43
2019-01-21T10:00:17.193Z,40.30
2019-01-21T10:02:49.644Z,44.77
2019-01-21T10:05:19.233Z,38.83
2019-01-21T10:08:08.810Z,45.03
2019-01-21T10:10:55.843Z,45.50
2019-01-21T10:13:56.604Z,47.80
2019-01-21T10:17:08.449Z,43.83
2019-01-21T10:20:14.269Z,47.50
2019-01-21T10:23:13.618Z,39.30
2019-01-21T10:26:51.436Z,44.23
2019-01-21T10:29:51.739Z,43.70
2019-01-21T10:33:06.897Z,39.57
2019-01-21T10:36:13.304Z,40.90
2019-01-21T10:39:22.621Z,46.23
2019-01-21T10:42:31.441Z,44.53
2019-01-21T10:45:17.169Z,47.57
2019-01-21T10:48:17.839Z,42.80
2019-01-21T10:51:28.863Z,44.70
2019-01-21T10:54:33.104Z,42.00
2019-01-21T10:57:28.466Z,38.57
2019-01-21T11:00:31.170Z,48.57
2019-01-21T11:03:21.694Z,42.83
2019-01-21T11:06:50.217Z,42.47
2019-01-21T11:09:44.081Z,41.83
2019-01-21T11:12:38.370Z,42.03
2019-01-21T11:15:33.963Z,39.60
2019-01-21T11:18:28.934Z,41.83
2019-01-21T11:21:22.553Z,37.07
2019-01-21T11:24:16.449Z,38.50
2019-01-21T11:27:27.288Z,44.27
2019-01-21T11:31:05.111Z,41.13
2019-01-21T11:34:48.544Z,41.93
2019-01-21T11:37:57.001Z,41.00
2019-01-21T11:41:15.438Z,43.80
2019-01-21T11:44:40.751Z,41.13
2019-01-21T11:48:06.265Z,40.70
2019-01-21T11:51:31.406Z,42.33
2019-01-21T11:54:29.783Z,34.83
2019-01-21T11:57:43.213Z,34.20
2019-01-21T12:00:22.501Z,39.33
2019-01-21T12:03:14.899Z,35.60
2019-01-21T12:06:00.749Z,42.10
2019-01-21T12:09:06.862Z,36.83
2019-01-21T12:11:56.956Z,40.80
2019-01-21T12:14:54.668Z,42.27
2019-01-21T12:18:10.139Z,37.10
2019-01-21T12:21:12.984Z,31.70
2019-01-21T12:24:29.681Z,32.33
2019-01-21T12:27:49.242Z,30.77
2019-01-21T12:30:28.592Z,32.07
2019-01-21T12:33:43.763Z,28.87
2019-01-21T12:36:36.634Z,28.90
2019-01-21T12:40:05.121Z,29.87
2019-01-21T12:43:10.799Z,27.60
2019-01-21T12:46:29.936Z,30.10
2019-01-21T12:49:27.244Z,27.23
2019-01-21T12:52:23.103Z,29.30
2019-01-21T12:55:23.056Z,30.63
2019-01-21T12:58:36.080Z,26.43
2019-01-21T13:01:32.021Z,30.50
2019-01-21T13:04:26.364Z,29.50
2019-01-21T13:07:35.865Z,32.17
2019-01-21T13:10:42.938Z,26.60
2019-01-21T13:13:48.166Z,28.10
2019-01-21T13:16:47.074Z,27.60
2019-01-21T13:20:03.048Z,25.40
2019-01-21T13:22:58.543Z,26.67
2019-01-21T13:26:32.506Z,26.57
2019-01-21T13:29:21.835Z,27.57
2019-01-21T13:32:05.013Z,29.13
2019-01-21T13:35:30.758Z,30.17
2019-01-21T13:38:23.496Z,26.73
2019-01-21T13:41:12.279Z,29.70
2019-01-21T13:44:22.441Z,24.20
2019-01-21T13:47:16.831Z,25.30
2019-01-21T13:50:20.909Z,27.80
2019-01-21T13:53:22.253Z,24.67
2019-01-21T13:56:17.333Z,23.10
2019-01-21T13:59:11.910Z,26.60
2019-01-21T14:02:01.892Z,22.47
2019-01-21T14:05:08.417Z,25.30
2019-01-21T14:08:24.082Z,22.67
2019-01-21T14:11:15.069Z,23.80
2019-01-21T14:14:21.191Z,26.00
2019-01-21T14:17:20.242Z,27.37
2019-01-21T14:19:58.154Z,24.70
2019-01-21T14:23:08.406Z,30.00
2019-01-21T14:26:27.950Z,20.27
2019-01-21T14:29:28.117Z,21.83
2019-01-21T14:32:35.108Z,20.70
2019-01-21T14:35:36.214Z,20.43
2019-01-21T14:38:21.030Z,25.70
2019-01-21T14:41:14.930Z,25.80
2019-01-21T14:44:21.731Z,22.33
2019-01-21T14:47:18.898Z,23.53
2019-01-21T14:50:05.131Z,21.37
2019-01-21T14:53:08.832Z,23.20
2019-01-21T14:56:10.470Z,23.10
2019-01-21T14:59:11.524Z,23.03
2019-01-21T15:02:12.392Z,27.03
2019-01-21T15:05:12.599Z,21.60
2019-01-21T15:08:16.825Z,21.73
2019-01-21T15:11:25.993Z,20.23
2019-01-21T15:14:23.751Z,18.80
2019-01-21T15:17:28.801Z,25.00
2019-01-21T15:20:29.380Z,19.00
2019-01-21T15:23:53.397Z,21.70
2019-01-21T15:26:43.424Z,19.83
2019-01-21T15:29:39.369Z,23.27
2019-01-21T15:32:44.603Z,16.97
2019-01-21T15:36:01.198Z,20.00
2019-01-21T15:38:59.489Z,20.73
2019-01-21T15:41:40.906Z,22.23
2019-01-21T15:45:00.530Z,19.97
2019-01-21T15:48:00.423Z,23.30
2019-01-21T15:51:05.015Z,23.33
2019-01-21T15:53:47.601Z,20.80
2019-01-21T15:57:16.086Z,22.20
2019-01-21T16:00:20.273Z,18.67
2019-01-21T16:03:05.308Z,19.67
2019-01-21T16:05:54.748Z,19.93
2019-01-21T16:08:50.530Z,19.73
2019-01-21T16:11:57.638Z,18.73
2019-01-21T16:14:49.630Z,21.40
2019-01-21T16:17:30.806Z,23.37
2019-01-21T16:20:23.880Z,21.90
2019-01-21T16:23:33.034Z,20.07
2019-01-21T16:26:10.074Z,20.07
2019-01-21T16:28:45.705Z,19.60
2019-01-21T16:31:57.865Z,21.67
2019-01-21T16:35:14.005Z,17.97
2019-01-21T16:38:39.199Z,22.40
2019-01-21T16:41:31.056Z,18.80
2019-01-21T16:44:00.203Z,20.17
2019-01-21T16:46:29.299Z,23.83
2019-01-21T16:48:58.261Z,15.73
2019-01-21T16:51:27.405Z,18.60
2019-01-21T16:53:56.419Z,22.83
2019-01-21T16:56:25.513Z,19.17
2019-01-21T16:58:54.553Z,22.37
2019-01-21T17:01:23.753Z,20.20
2019-01-21T17:03:52.870Z,21.03
2019-01-21T17:06:21.819Z,20.23
2019-01-21T17:08:50.962Z,21.10
2019-01-21T17:11:20.316Z,19.43
2019-01-21T17:13:49.368Z,19.57
2019-01-21T17:16:18.392Z,19.53
2019-01-21T17:18:47.525Z,21.77
2019-01-21T17:21:16.636Z,21.10
2019-01-21T17:23:45.670Z,30.00
2019-01-21T17:26:14.804Z,21.30
2019-01-21T17:28:43.883Z,22.53
2019-01-21T17:31:12.988Z,20.13
2019-01-21T17:33:42.034Z,21.73
2019-01-21T17:36:11.124Z,20.93
2019-01-21T17:38:40.139Z,21.83
2019-01-21T17:41:09.278Z,24.03
2019-01-21T17:43:38.387Z,23.00
2019-01-21T17:46:07.441Z,27.40
2019-01-21T17:48:36.500Z,20.53
2019-01-21T17:51:05.549Z,23.60
2019-01-21T17:53:34.449Z,19.73
2019-01-21T17:56:23.061Z,20.73
2019-01-21T17:58:52.212Z,23.43
2019-01-21T18:01:21.531Z,25.90
2019-01-21T18:03:50.777Z,24.90
2019-01-21T18:06:20.041Z,24.07
2019-01-21T18:08:49.346Z,23.87
2019-01-21T18:11:18.617Z,28.20
2019-01-21T18:13:47.897Z,28.90
2019-01-21T18:16:17.079Z,24.50
2019-01-21T18:18:46.303Z,22.67
2019-01-21T18:21:15.560Z,26.93
2019-01-21T18:23:44.881Z,26.57
2019-01-21T18:26:14.093Z,25.83
2019-01-21T18:28:43.363Z,30.00
2019-01-21T18:31:12.574Z,30.20
2019-01-21T18:33:41.915Z,31.80
2019-01-21T18:36:11.185Z,31.23
2019-01-21T18:38:40.766Z,30.80
2019-01-21T18:41:10.008Z,28.00
2019-01-21T18:43:39.310Z,26.27
2019-01-21T18:46:08.870Z,24.90
2019-01-21T18:48:38.112Z,27.47
2019-01-21T18:51:07.392Z,25.90
2019-01-21T18:53:36.591Z,27.73
2019-01-21T18:56:05.882Z,27.23
2019-01-21T18:58:35.204Z,27.33
2019-01-21T19:01:04.369Z,30.87
2019-01-21T19:03:33.646Z,28.37
2019-01-21T19:06:02.792Z,24.97
2019-01-21T19:08:32.034Z,26.93
2019-01-21T19:11:01.362Z,25.37
2019-01-21T19:13:30.528Z,23.50
2019-01-21T19:15:59.774Z,29.53
2019-01-21T19:18:28.990Z,26.40
2019-01-21T19:20:58.249Z,27.47
2019-01-21T19:23:30.627Z,27.20
2019-01-21T19:25:59.843Z,28.23
2019-01-21T19:28:30.637Z,30.07
2019-01-21T19:30:59.853Z,26.90
2019-01-21T19:33:30.501Z,27.63
2019-01-21T19:35:59.561Z,31.40
2019-01-21T19:38:47.861Z,30.37
2019-01-21T19:41:19.540Z,36.57
2019-01-21T19:43:48.741Z,25.90
2019-01-21T19:46:18.064Z,27.97
2019-01-21T19:48:47.289Z,25.30
2019-01-21T19:54:09.925Z,26.87
2019-01-21T19:56:39.017Z,30.97
2019-01-21T19:59:08.411Z,31.70
2019-01-21T20:01:37.497Z,32.07
2019-01-21T20:04:06.763Z,29.87
2019-01-21T20:06:35.861Z,28.63
2019-01-21T20:09:07.515Z,29.37
2019-01-21T20:11:36.565Z,30.23
2019-01-21T20:14:05.809Z,28.10
2019-01-21T20:16:35.088Z,31.63
2019-01-21T20:19:04.254Z,29.63
2019-01-21T20:21:33.298Z,30.10
2019-01-21T20:24:02.476Z,27.03
2019-01-21T20:26:31.576Z,29.40
2019-01-21T20:29:01.773Z,32.17
2019-01-21T20:31:30.979Z,26.00
2019-01-21T20:34:01.123Z,26.07
2019-01-21T20:36:30.268Z,30.77
2019-01-21T20:38:59.404Z,33.70
2019-01-21T20:41:28.554Z,29.37
2019-01-21T20:43:57.707Z,30.13
2019-01-21T20:46:26.866Z,28.27
2019-01-21T20:49:02.262Z,30.80
2019-01-21T20:51:26.844Z,26.93
2019-01-21T20:53:56.043Z,33.97
2019-01-21T20:56:25.119Z,34.30
2019-01-21T20:58:54.371Z,32.17
2019-01-21T21:01:23.453Z,26.87
2019-01-21T21:03:52.675Z,28.27
2019-01-21T21:06:22.080Z,30.53
2019-01-21T21:08:52.916Z,30.57
2019-01-21T21:11:23.404Z,34.10
2019-01-21T21:13:52.804Z,38.97
2019-01-21T21:16:22.093Z,26.47
2019-01-21T21:18:51.415Z,32.97
2019-01-21T21:21:20.763Z,30.03
2019-01-21T21:23:50.050Z,33.10
2019-01-21T21:26:19.358Z,32.30
2019-01-21T21:28:48.730Z,28.13
2019-01-21T21:31:18.095Z,29.60
2019-01-21T21:33:47.444Z,34.10
2019-01-21T21:36:19.521Z,34.67
2019-01-21T21:38:49.085Z,35.23
2019-01-21T21:41:18.409Z,37.67
2019-01-21T21:43:47.717Z,33.87
2019-01-21T21:46:17.057Z,33.00
2019-01-21T21:48:46.388Z,35.83
2019-01-21T21:51:16.165Z,34.13
2019-01-21T21:53:45.511Z,36.70
2019-01-21T21:56:14.824Z,35.73
2019-01-21T21:58:44.323Z,31.13
2019-01-21T22:01:13.621Z,38.03
2019-01-21T22:03:42.922Z,34.33
2019-01-21T22:06:15.301Z,32.07
2019-01-21T22:08:44.655Z,31.23
2019-01-21T22:11:13.950Z,35.70
2019-01-21T22:13:43.330Z,36.70
2019-01-21T22:16:12.944Z,35.93
2019-01-21T22:18:42.198Z,37.30
2019-01-21T22:21:11.610Z,32.80
2019-01-21T22:23:40.918Z,36.67
2019-01-21T22:26:10.225Z,33.10
2019-01-21T22:28:39.400Z,33.40
2019-01-21T22:31:08.396Z,33.83
2019-01-21T22:33:37.680Z,30.43
2019-01-21T22:36:06.764Z,34.93
2019-01-21T22:38:35.858Z,33.77
2019-01-21T22:41:04.988Z,39.67
2019-01-21T22:43:34.110Z,36.63
2019-01-21T22:46:03.213Z,35.23
2019-01-21T22:48:32.343Z,34.17
2019-01-21T22:51:01.524Z,36.30
2019-01-21T22:53:30.589Z,37.60
2019-01-21T22:55:59.768Z,37.80
2019-01-21T22:58:28.965Z,41.53
2019-01-21T23:01:03.929Z,35.57
2019-01-21T23:03:33.382Z,34.20
2019-01-21T23:06:02.501Z,46.57
2019-01-21T23:08:31.627Z,34.53
2019-01-21T23:11:00.969Z,36.63
2019-01-21T23:13:30.078Z,32.90
2019-01-21T23:15:59.342Z,37.83
2019-01-21T23:18:28.450Z,37.43
2019-01-21T23:20:57.544Z,36.10
2019-01-21T23:23:26.736Z,34.30
2019-01-21T23:25:55.717Z,37.37
2019-01-21T23:28:24.806Z,35.30
2019-01-21T23:30:53.805Z,32.53
2019-01-21T23:33:23.317Z,36.93
2019-01-21T23:35:52.338Z,32.23
2019-01-21T23:38:21.442Z,32.17
2019-01-21T23:40:50.526Z,33.27
2019-01-21T23:43:19.640Z,34.03
2019-01-21T23:45:49.152Z,36.97
2019-01-21T23:48:18.256Z,37.67
2019-01-21T23:50:47.584Z,37.37
2019-01-21T23:53:16.984Z,36.00
2019-01-21T23:55:46.094Z,39.47
2019-01-21T23:58:18.354Z,32.37
